Time;durP1;ratioP1;P1;durP2;ratioP2;P2;SDS_P1;SDS_P2;PMS_P1;PMS_P2;Temp;Humidity;BMP_temperature;BMP_pressure;BME280_temperature;BME280_humidity;BME280_pressure;Samples;Min_cycle;Max_cycle;Signal;HPM_P1;HPM_P2
2023/07/16 00:01:56;;;;;;;10.13;3.58;;;15.50;99.90;;;;;;6130066;23;20493;-84
2023/07/16 00:04:21;;;;;;;7.68;3.50;;;15.50;99.90;;;;;;6129390;23;20022;-80
2023/07/16 00:06:47;;;;;;;8.07;3.67;;;15.50;99.90;;;;;;6154042;23;20013;-80
2023/07/16 00:09:13;;;;;;;10.02;3.78;;;15.60;99.90;;;;;;6153757;23;20013;-81
2023/07/16 00:11:38;;;;;;;10.35;4.00;;;15.60;99.90;;;;;;6129957;23;20056;-81
2023/07/16 00:14:04;;;;;;;8.55;3.55;;;15.60;99.90;;;;;;6129605;23;20336;-80
2023/07/16 00:16:30;;;;;;;8.90;3.90;;;15.60;99.90;;;;;;6129557;23;20068;-81
2023/07/16 00:18:56;;;;;;;12.73;4.03;;;15.60;99.90;;;;;;6153324;23;20025;-81
2023/07/16 00:21:22;;;;;;;9.65;3.67;;;15.60;99.90;;;;;;6129910;23;20020;-81
2023/07/16 00:23:47;;;;;;;10.32;4.18;;;15.70;99.90;;;;;;6153942;23;20378;-81
2023/07/16 00:26:13;;;;;;;9.10;3.70;;;15.70;99.90;;;;;;6129394;23;20357;-81
2023/07/16 00:28:39;;;;;;;9.00;3.28;;;15.70;99.90;;;;;;6153393;23;20391;-81
2023/07/16 00:31:05;;;;;;;8.93;3.55;;;15.70;99.90;;;;;;6154024;23;20013;-80
2023/07/16 00:33:30;;;;;;;8.45;3.70;;;15.70;99.90;;;;;;6153978;23;20115;-80
2023/07/16 00:35:56;;;;;;;10.52;3.60;;;15.70;99.90;;;;;;6153846;23;20586;-80
2023/07/16 00:38:21;;;;;;;10.50;4.05;;;15.60;99.90;;;;;;6153367;23;20017;-81
2023/07/16 00:40:47;;;;;;;10.43;3.90;;;15.60;99.90;;;;;;6153673;23;20085;-82
2023/07/16 00:43:14;;;;;;;8.90;3.80;;;15.60;99.90;;;;;;6153610;23;20017;-81
2023/07/16 00:45:40;;;;;;;11.38;4.00;;;15.60;99.90;;;;;;6129536;23;20025;-81
2023/07/16 00:48:07;;;;;;;9.30;3.70;;;15.50;99.90;;;;;;6128626;23;20045;-81
2023/07/16 00:50:38;;;;;;;7.68;3.80;;;15.50;99.90;;;;;;6129235;23;20067;-81
2023/07/16 00:53:08;;;;;;;12.73;4.40;;;15.60;99.90;;;;;;6128959;23;20339;-82
2023/07/16 00:55:35;;;;;;;10.23;4.30;;;15.50;99.90;;;;;;6153848;23;20338;-81
2023/07/16 00:58:05;;;;;;;8.90;4.07;;;15.60;99.90;;;;;;6152959;23;20014;-80
2023/07/16 01:00:34;;;;;;;8.18;4.30;;;15.60;99.90;;;;;;6128997;23;20352;-81
2023/07/16 01:03:08;;;;;;;9.40;4.28;;;15.60;99.90;;;;;;6153580;23;20013;-82
2023/07/16 01:05:43;;;;;;;10.18;4.47;;;15.60;99.90;;;;;;6129556;23;20299;-81
2023/07/16 01:08:10;;;;;;;7.95;3.97;;;15.60;99.90;;;;;;6153519;23;20009;-81
2023/07/16 01:10:38;;;;;;;10.13;4.10;;;15.60;99.90;;;;;;6128990;23;20018;-81
2023/07/16 01:13:04;;;;;;;9.63;3.95;;;15.60;99.90;;;;;;6129023;23;20149;-81
2023/07/16 01:15:30;;;;;;;9.35;4.45;;;15.60;99.90;;;;;;6153305;23;20084;-82
2023/07/16 01:17:55;;;;;;;10.75;4.78;;;15.60;99.90;;;;;;6128787;23;20531;-81
2023/07/16 01:20:21;;;;;;;10.27;4.82;;;15.60;99.90;;;;;;6128566;23;20010;-82
2023/07/16 01:22:57;;;;;;;10.95;4.95;;;15.70;99.90;;;;;;6129261;23;20350;-82
2023/07/16 01:25:56;;;;;;;8.77;4.30;;;15.80;99.90;;;;;;6153544;23;20009;-82
2023/07/16 01:29:01;;;;;;;10.75;4.60;;;15.80;99.90;;;;;;6153208;23;20089;-82
2023/07/16 01:31:28;;;;;;;11.00;4.55;;;15.80;99.90;;;;;;6129121;23;20021;-82
2023/07/16 01:33:54;;;;;;;10.57;4.38;;;15.90;99.90;;;;;;6128791;23;20378;-81
2023/07/16 01:36:22;;;;;;;10.23;4.90;;;16.00;99.90;;;;;;6128886;23;20010;-81
2023/07/16 01:38:48;;;;;;;9.25;4.65;;;16.00;99.90;;;;;;6128547;23;20013;-81
2023/07/16 01:41:13;;;;;;;9.23;5.43;;;16.00;99.90;;;;;;6152888;23;20044;-82
2023/07/16 01:43:39;;;;;;;12.35;4.75;;;16.10;99.90;;;;;;6128307;23;20045;-81
2023/07/16 01:46:05;;;;;;;9.45;5.22;;;16.10;99.90;;;;;;6128711;23;20014;-82
2023/07/16 01:48:36;;;;;;;10.50;5.43;;;16.10;99.90;;;;;;6128617;23;20014;-81
2023/07/16 01:51:03;;;;;;;9.60;4.82;;;16.10;99.90;;;;;;6128446;23;20017;-82
2023/07/16 01:53:28;;;;;;;12.40;5.95;;;16.10;99.90;;;;;;6128602;23;20096;-81
2023/07/16 01:55:54;;;;;;;9.98;5.18;;;16.10;99.90;;;;;;6128724;23;20048;-82
2023/07/16 01:58:20;;;;;;;11.00;5.55;;;16.10;99.90;;;;;;6128590;23;20021;-82
2023/07/16 02:00:45;;;;;;;10.25;5.22;;;16.10;99.90;;;;;;6152944;23;20020;-80
2023/07/16 02:03:11;;;;;;;8.45;4.80;;;16.10;99.90;;;;;;6127960;23;20036;-81
2023/07/16 02:05:37;;;;;;;8.60;5.07;;;16.10;99.90;;;;;;6128793;23;20013;-81
2023/07/16 02:08:02;;;;;;;9.77;4.90;;;16.00;99.90;;;;;;6127909;23;20041;-81
2023/07/16 02:10:28;;;;;;;7.57;4.78;;;16.00;99.90;;;;;;6152437;23;20021;-81
2023/07/16 02:12:54;;;;;;;10.40;4.70;;;16.00;99.90;;;;;;6153316;23;20010;-81
2023/07/16 02:15:19;;;;;;;10.80;5.05;;;16.00;99.90;;;;;;6152911;23;20025;-81
2023/07/16 02:17:45;;;;;;;8.60;5.47;;;16.00;99.90;;;;;;6128212;23;20056;-82
2023/07/16 02:20:11;;;;;;;7.38;4.80;;;16.00;99.90;;;;;;6152568;23;20010;-81
2023/07/16 02:22:37;;;;;;;10.75;5.10;;;16.00;99.90;;;;;;6128606;23;20014;-81
2023/07/16 02:25:03;;;;;;;8.50;5.05;;;16.00;99.90;;;;;;6128045;23;20037;-82
2023/07/16 02:27:29;;;;;;;9.77;4.63;;;16.00;99.90;;;;;;6127675;23;20451;-81
2023/07/16 02:29:55;;;;;;;15.40;5.53;;;16.00;99.90;;;;;;6152431;23;20083;-82
2023/07/16 02:32:21;;;;;;;12.00;4.70;;;15.90;99.90;;;;;;6153144;23;20072;-81
2023/07/16 02:34:46;;;;;;;9.25;4.70;;;15.90;99.90;;;;;;6152786;23;20014;-81
2023/07/16 02:37:12;;;;;;;8.82;4.55;;;15.80;99.90;;;;;;6152396;23;20294;-81
2023/07/16 02:39:39;;;;;;;10.15;5.18;;;15.80;99.90;;;;;;6127889;23;20084;-81
2023/07/16 02:42:05;;;;;;;9.23;5.43;;;15.80;99.90;;;;;;6152843;23;20412;-81
2023/07/16 02:44:30;;;;;;;7.72;4.88;;;15.80;99.90;;;;;;6128391;23;20013;-82
2023/07/16 02:46:56;;;;;;;9.35;4.65;;;15.90;99.90;;;;;;6152495;23;20267;-81
2023/07/16 02:49:22;;;;;;;9.27;5.22;;;15.80;99.90;;;;;;6127742;23;20009;-82
2023/07/16 02:51:47;;;;;;;11.40;6.07;;;15.70;99.90;;;;;;6128471;23;20469;-82
2023/07/16 02:54:13;;;;;;;10.73;5.60;;;15.80;99.90;;;;;;6152851;23;20009;-81
2023/07/16 02:56:39;;;;;;;11.10;5.85;;;15.70;99.90;;;;;;6128117;23;20013;-81
2023/07/16 02:59:04;;;;;;;12.60;6.28;;;15.60;99.90;;;;;;6127991;23;20037;-81
2023/07/16 03:01:30;;;;;;;12.15;5.05;;;15.60;99.90;;;;;;6152282;23;20021;-81
2023/07/16 03:03:55;;;;;;;10.40;5.15;;;15.60;99.90;;;;;;6128000;23;20029;-81
2023/07/16 03:06:21;;;;;;;10.50;5.40;;;15.60;99.90;;;;;;6152571;23;20010;-82
2023/07/16 03:08:47;;;;;;;10.65;5.68;;;15.60;99.90;;;;;;6152217;23;20614;-81
2023/07/16 03:11:12;;;;;;;11.07;5.57;;;15.60;99.90;;;;;;6151307;23;20024;-81
2023/07/16 03:13:38;;;;;;;10.52;5.95;;;15.60;99.90;;;;;;6127555;23;20020;-81
2023/07/16 03:16:04;;;;;;;9.73;6.03;;;15.50;99.90;;;;;;6152519;23;20061;-81
2023/07/16 03:18:30;;;;;;;10.25;5.80;;;15.50;99.90;;;;;;6127798;23;20092;-82
2023/07/16 03:20:56;;;;;;;13.02;5.53;;;15.40;99.90;;;;;;6125347;23;20018;-81
2023/07/16 03:23:23;;;;;;;9.70;5.93;;;15.40;99.90;;;;;;6152639;23;20524;-81
2023/07/16 03:25:48;;;;;;;13.18;6.35;;;15.40;99.90;;;;;;6152539;23;20013;-81
2023/07/16 03:28:14;;;;;;;8.40;6.00;;;15.50;99.90;;;;;;6127399;23;20088;-81
2023/07/16 03:30:39;;;;;;;10.68;6.22;;;15.50;99.90;;;;;;6152160;23;20075;-80
2023/07/16 03:33:05;;;;;;;11.50;6.32;;;15.50;99.90;;;;;;6152191;23;20024;-81
2023/07/16 03:35:31;;;;;;;11.05;6.28;;;15.60;99.90;;;;;;6153069;23;20006;-82
2023/07/16 03:37:57;;;;;;;12.88;6.35;;;15.60;99.90;;;;;;6152254;23;20064;-81
2023/07/16 03:40:26;;;;;;;18.63;6.45;;;15.60;99.90;;;;;;6127915;23;20017;-81
2023/07/16 03:42:52;;;;;;;11.68;6.40;;;15.60;99.90;;;;;;6152371;23;20014;-81
2023/07/16 03:45:18;;;;;;;10.98;5.82;;;15.60;99.90;;;;;;6152747;23;20060;-81
2023/07/16 03:47:45;;;;;;;11.57;6.22;;;15.60;99.90;;;;;;6152124;23;20067;-81
2023/07/16 03:50:10;;;;;;;11.20;6.25;;;15.60;99.90;;;;;;6152547;23;20013;-81
2023/07/16 03:52:36;;;;;;;10.40;6.15;;;15.60;99.90;;;;;;6151579;23;20304;-81
2023/07/16 03:55:02;;;;;;;10.57;6.47;;;15.50;99.90;;;;;;6128184;23;20014;-81
2023/07/16 03:57:29;;;;;;;10.77;6.30;;;15.50;99.90;;;;;;6127208;23;20010;-82
2023/07/16 03:59:54;;;;;;;10.80;6.18;;;15.50;99.90;;;;;;6152484;23;20025;-81
2023/07/16 04:02:20;;;;;;;11.18;6.40;;;15.50;99.90;;;;;;6151600;23;20010;-81
2023/07/16 04:04:46;;;;;;;12.50;6.80;;;15.60;99.90;;;;;;6128017;23;20009;-81
2023/07/16 04:07:12;;;;;;;12.95;6.75;;;15.50;99.90;;;;;;6152102;23;20535;-82
2023/07/16 04:09:38;;;;;;;13.73;6.38;;;15.50;99.90;;;;;;6127480;23;20017;-82
2023/07/16 04:12:07;;;;;;;12.25;6.20;;;15.40;99.90;;;;;;6152217;23;20458;-81
2023/07/16 04:14:33;;;;;;;14.82;6.47;;;15.50;99.90;;;;;;6128139;23;20014;-81
2023/07/16 04:16:58;;;;;;;11.05;6.75;;;15.50;99.90;;;;;;6127725;23;20006;-81
2023/07/16 04:19:24;;;;;;;10.18;6.53;;;15.50;99.90;;;;;;6127598;23;20009;-82
2023/07/16 04:21:50;;;;;;;11.20;6.30;;;15.60;99.90;;;;;;6151575;23;20346;-81
2023/07/16 04:24:15;;;;;;;8.50;6.05;;;15.60;99.90;;;;;;6152661;23;20517;-81
2023/07/16 04:26:41;;;;;;;13.43;6.38;;;15.60;99.90;;;;;;6152246;23;20386;-81
2023/07/16 04:29:06;;;;;;;11.00;6.07;;;15.60;99.90;;;;;;6151890;23;20450;-81
2023/07/16 04:31:32;;;;;;;14.07;6.35;;;15.60;99.90;;;;;;6126529;23;20025;-81
2023/07/16 04:33:58;;;;;;;11.30;5.63;;;15.60;99.90;;;;;;6104588;23;20016;-82
2023/07/16 04:36:23;;;;;;;13.15;6.50;;;15.60;99.90;;;;;;6129505;23;20015;-81
2023/07/16 04:38:49;;;;;;;12.40;6.32;;;15.70;99.90;;;;;;6129188;23;20020;-81
2023/07/16 04:41:16;;;;;;;13.48;6.28;;;15.70;99.90;;;;;;6103476;23;20581;-82
2023/07/16 04:43:42;;;;;;;11.25;5.90;;;15.80;99.90;;;;;;6129819;23;20053;-82
2023/07/16 04:46:07;;;;;;;12.68;5.82;;;15.90;99.90;;;;;;6129413;23;20021;-82
2023/07/16 04:48:33;;;;;;;13.38;5.82;;;16.10;99.90;;;;;;6104884;23;20378;-82
2023/07/16 04:50:59;;;;;;;10.10;5.55;;;16.40;99.90;;;;;;6128349;23;20449;-81
2023/07/16 04:53:25;;;;;;;8.30;5.32;;;16.70;99.90;;;;;;6126182;23;20056;-81
2023/07/16 04:55:50;;;;;;;8.43;4.85;;;17.10;99.90;;;;;;6128908;23;20014;-80
2023/07/16 04:58:16;;;;;;;7.85;5.07;;;17.40;99.90;;;;;;6129466;23;20446;-82
2023/07/16 05:00:42;;;;;;;11.77;5.38;;;17.90;99.90;;;;;;6128867;23;20053;-82
2023/07/16 05:03:08;;;;;;;7.97;4.63;;;18.20;99.90;;;;;;6128599;23;20014;-82
2023/07/16 05:05:34;;;;;;;11.77;5.20;;;18.60;99.90;;;;;;6127896;23;20084;-82
2023/07/16 05:08:00;;;;;;;8.65;4.88;;;19.00;99.90;;;;;;6129076;23;20033;-82
2023/07/16 05:10:27;;;;;;;14.80;5.35;;;19.30;99.90;;;;;;6104809;23;20014;-82
2023/07/16 05:12:53;;;;;;;11.30;4.80;;;19.70;99.90;;;;;;6104135;23;20311;-81
2023/07/16 05:15:18;;;;;;;7.93;4.45;;;20.00;99.90;;;;;;6104490;23;20089;-81
2023/07/16 05:17:44;;;;;;;9.02;4.72;;;20.30;99.90;;;;;;6104196;23;20057;-82
2023/07/16 05:20:10;;;;;;;8.35;4.47;;;20.60;99.90;;;;;;6104719;23;20009;-81
2023/07/16 05:22:36;;;;;;;8.98;4.30;;;20.80;99.90;;;;;;6127935;23;20021;-82
2023/07/16 05:25:02;;;;;;;8.70;4.55;;;20.90;99.90;;;;;;6104396;23;20009;-82
2023/07/16 05:27:28;;;;;;;7.70;4.78;;;21.20;99.90;;;;;;6104544;23;20017;-81
2023/07/16 05:29:54;;;;;;;9.13;4.47;;;21.30;99.90;;;;;;6136459;23;20016;-81
2023/07/16 05:32:19;;;;;;;8.57;4.45;;;21.60;99.90;;;;;;6152948;23;20096;-81
2023/07/16 05:34:45;;;;;;;9.13;4.70;;;21.70;99.90;;;;;;6128702;23;20009;-82
2023/07/16 05:37:11;;;;;;;12.05;5.07;;;21.90;99.90;;;;;;6153036;23;20010;-83
2023/07/16 05:39:37;;;;;;;10.13;5.25;;;22.10;99.90;;;;;;6153159;23;20017;-82
2023/07/16 05:42:04;;;;;;;9.05;4.65;;;22.10;99.90;;;;;;6152808;23;20013;-81
2023/07/16 05:44:30;;;;;;;8.85;4.53;;;22.10;99.90;;;;;;6152202;23;20017;-81
2023/07/16 05:46:55;;;;;;;8.18;4.60;;;22.00;99.90;;;;;;6128685;23;20020;-82
2023/07/16 05:49:21;;;;;;;10.25;5.28;;;22.00;99.90;;;;;;6153360;23;20014;-82
2023/07/16 05:51:47;;;;;;;8.68;5.35;;;22.00;99.90;;;;;;6153080;23;20473;-82
2023/07/16 05:54:12;;;;;;;8.82;5.13;;;22.10;99.90;;;;;;6127718;23;20025;-81
2023/07/16 05:56:38;;;;;;;8.43;5.32;;;22.00;99.90;;;;;;6153264;23;20010;-82
2023/07/16 05:59:04;;;;;;;8.70;5.57;;;21.80;99.90;;;;;;6153305;23;20474;-82
2023/07/16 06:01:29;;;;;;;10.40;6.05;;;21.40;99.90;;;;;;6153004;23;20017;-82
2023/07/16 06:03:55;;;;;;;11.23;5.57;;;20.90;99.90;;;;;;6152506;23;20010;-82
2023/07/16 06:06:21;;;;;;;9.90;5.82;;;20.40;99.90;;;;;;6152484;23;20064;-81
2023/07/16 06:08:46;;;;;;;8.63;5.60;;;20.00;99.90;;;;;;6128532;23;20006;-81
2023/07/16 06:11:12;;;;;;;9.27;6.10;;;19.60;99.90;;;;;;6153442;23;20017;-82
2023/07/16 06:13:38;;;;;;;9.80;6.13;;;19.30;99.90;;;;;;6152051;23;20497;-82
2023/07/16 06:16:04;;;;;;;8.95;5.80;;;19.10;99.90;;;;;;6150892;23;20013;-82
2023/07/16 06:18:30;;;;;;;10.63;6.43;;;18.90;99.90;;;;;;6151393;23;20018;-82
2023/07/16 06:20:55;;;;;;;9.23;5.95;;;18.70;99.90;;;;;;6153283;23;20021;-82
2023/07/16 06:23:21;;;;;;;10.27;6.03;;;18.60;99.90;;;;;;6153353;23;20520;-81
2023/07/16 06:25:48;;;;;;;9.70;5.70;;;18.40;99.90;;;;;;6127108;23;20028;-81
2023/07/16 06:28:14;;;;;;;12.40;6.50;;;18.30;99.90;;;;;;6153133;23;20088;-81
2023/07/16 06:30:40;;;;;;;10.88;6.45;;;18.30;99.90;;;;;;6152623;23;20383;-81
2023/07/16 06:33:06;;;;;;;10.40;6.63;;;18.30;99.90;;;;;;6128980;23;20009;-81
2023/07/16 06:35:32;;;;;;;12.75;7.05;;;18.30;99.90;;;;;;6152151;23;20026;-81
2023/07/16 06:37:57;;;;;;;11.55;6.72;;;18.30;99.90;;;;;;6152143;23;20347;-81
2023/07/16 06:40:24;;;;;;;9.38;6.32;;;18.30;99.90;;;;;;6126955;23;20017;-81
2023/07/16 06:42:50;;;;;;;12.18;6.85;;;18.40;99.90;;;;;;6150931;23;20009;-82
2023/07/16 06:45:17;;;;;;;12.43;6.47;;;18.40;99.90;;;;;;6128388;23;20346;-82
2023/07/16 06:47:43;;;;;;;8.65;6.60;;;18.30;99.90;;;;;;6128172;23;20017;-83
2023/07/16 06:50:09;;;;;;;10.07;6.10;;;18.40;99.90;;;;;;6152084;23;20013;-84
2023/07/16 06:52:35;;;;;;;10.55;6.45;;;18.40;99.90;;;;;;6127926;23;20024;-84
2023/07/16 06:55:00;;;;;;;9.63;6.47;;;18.30;99.90;;;;;;6152808;23;20013;-84
2023/07/16 06:57:26;;;;;;;10.85;6.25;;;18.50;99.90;;;;;;6152432;23;20033;-82
2023/07/16 06:59:51;;;;;;;9.73;6.53;;;18.30;99.90;;;;;;6153032;23;20017;-82
2023/07/16 07:02:18;;;;;;;8.35;6.03;;;18.40;99.90;;;;;;6152200;23;20024;-83
2023/07/16 07:04:44;;;;;;;8.98;6.80;;;18.40;99.90;;;;;;6128385;23;20020;-83
2023/07/16 07:07:09;;;;;;;9.00;6.53;;;18.40;99.90;;;;;;6151268;23;20040;-82
2023/07/16 07:09:35;;;;;;;12.45;7.10;;;18.40;99.90;;;;;;6127893;23;20056;-82
2023/07/16 07:12:01;;;;;;;10.45;7.15;;;18.50;99.90;;;;;;6152373;23;20010;-83
2023/07/16 07:14:26;;;;;;;8.80;6.10;;;18.50;99.90;;;;;;6152055;23;20040;-83
2023/07/16 07:16:52;;;;;;;9.52;6.78;;;18.60;99.90;;;;;;6152090;23;20024;-84
2023/07/16 07:19:18;;;;;;;9.70;6.30;;;18.60;99.90;;;;;;6152710;23;20020;-84
2023/07/16 07:21:43;;;;;;;10.77;6.55;;;18.70;99.90;;;;;;6127274;23;20014;-84
2023/07/16 07:24:09;;;;;;;9.55;6.72;;;18.70;99.90;;;;;;6152944;23;20414;-84
2023/07/16 07:26:35;;;;;;;8.57;6.32;;;18.70;99.90;;;;;;6128083;23;20060;-83
2023/07/16 07:29:00;;;;;;;10.15;6.38;;;18.90;99.90;;;;;;6152688;23;20016;-83
2023/07/16 07:31:26;;;;;;;9.63;6.43;;;18.90;99.90;;;;;;6171579;23;20024;-76
2023/07/16 07:33:53;;;;;;;13.15;6.50;;;18.90;99.90;;;;;;6181057;23;20012;-76
2023/07/16 07:36:19;;;;;;;8.57;6.40;;;18.90;99.90;;;;;;6157023;23;20013;-77
2023/07/16 07:38:45;;;;;;;8.80;6.10;;;19.00;99.90;;;;;;6182211;23;20020;-75
2023/07/16 07:41:10;;;;;;;10.48;5.97;;;19.10;99.90;;;;;;6158886;23;20020;-75
2023/07/16 07:43:36;;;;;;;8.55;6.30;;;19.20;99.90;;;;;;6152424;23;20052;-76
2023/07/16 07:46:02;;;;;;;11.65;6.43;;;19.30;99.90;;;;;;6152260;23;20009;-76
2023/07/16 07:48:27;;;;;;;11.90;6.28;;;19.40;99.90;;;;;;6152293;23;20018;-76
2023/07/16 07:50:53;;;;;;;9.77;6.07;;;19.60;99.90;;;;;;6151969;23;20013;-75
2023/07/16 07:53:19;;;;;;;11.48;6.38;;;20.00;99.90;;;;;;6151863;23;20569;-76
2023/07/16 07:55:45;;;;;;;7.88;6.20;;;20.60;99.90;;;;;;6151617;23;20483;-76
2023/07/16 07:58:11;;;;;;;11.38;6.13;;;21.00;99.90;;;;;;6152423;23;20013;-76
2023/07/16 08:00:38;;;;;;;9.13;6.18;;;21.20;99.90;;;;;;6152271;23;20009;-76
2023/07/16 08:03:03;;;;;;;9.63;6.03;;;21.30;99.90;;;;;;6151747;23;20048;-75
2023/07/16 08:05:29;;;;;;;9.32;5.60;;;21.20;99.90;;;;;;6152179;23;20013;-76
2023/07/16 08:07:55;;;;;;;8.35;5.88;;;21.30;99.90;;;;;;6152045;23;20013;-77
2023/07/16 08:10:21;;;;;;;8.13;6.10;;;21.40;99.90;;;;;;6153342;23;20009;-76
2023/07/16 08:12:47;;;;;;;11.18;6.30;;;21.50;99.90;;;;;;6129531;23;20010;-76
2023/07/16 08:15:16;;;;;;;9.35;6.18;;;21.70;99.90;;;;;;6153694;23;20016;-77
2023/07/16 08:17:42;;;;;;;11.82;6.50;;;21.70;99.90;;;;;;6152541;23;20092;-77
2023/07/16 08:20:09;;;;;;;8.32;5.80;;;21.40;99.90;;;;;;6129371;23;20013;-80
2023/07/16 08:22:34;;;;;;;10.63;7.13;;;21.20;99.90;;;;;;6127328;23;20045;-80
2023/07/16 08:25:00;;;;;;;9.77;6.05;;;20.80;99.90;;;;;;6128673;23;20024;-79
2023/07/16 08:27:26;;;;;;;10.55;6.40;;;20.80;99.90;;;;;;6152717;23;20018;-81
2023/07/16 08:29:51;;;;;;;11.90;6.72;;;20.70;99.90;;;;;;6129841;23;20020;-80
2023/07/16 08:32:19;;;;;;;11.05;6.43;;;20.60;99.90;;;;;;6155692;23;20017;-80
2023/07/16 08:34:44;;;;;;;10.38;6.25;;;20.50;99.90;;;;;;6128646;23;20016;-79
2023/07/16 08:37:10;;;;;;;10.10;7.07;;;20.50;99.90;;;;;;6129866;23;20084;-79
2023/07/16 08:39:35;;;;;;;10.30;6.07;;;20.50;99.90;;;;;;6129571;23;20068;-80
2023/07/16 08:42:01;;;;;;;11.25;6.55;;;20.60;99.90;;;;;;6129565;23;20024;-79
2023/07/16 08:44:29;;;;;;;11.50;5.93;;;20.50;99.90;;;;;;6153944;23;20048;-79
2023/07/16 08:46:54;;;;;;;8.43;5.63;;;20.70;99.90;;;;;;6154696;23;20018;-81
2023/07/16 08:49:22;;;;;;;8.75;6.18;;;21.10;99.90;;;;;;6153993;23;20017;-78
2023/07/16 08:51:48;;;;;;;8.40;5.85;;;21.30;99.90;;;;;;6153544;23;20013;-78
2023/07/16 08:54:19;;;;;;;8.77;5.85;;;21.70;99.90;;;;;;6128691;23;20436;-78
2023/07/16 08:56:47;;;;;;;8.75;5.57;;;22.20;99.90;;;;;;6153347;23;20420;-78
2023/07/16 08:59:14;;;;;;;8.90;5.05;;;22.80;99.90;;;;;;6154106;23;20104;-79
2023/07/16 09:01:40;;;;;;;6.97;5.80;;;23.20;99.90;;;;;;6153225;23;20029;-76
2023/07/16 09:04:06;;;;;;;10.35;6.32;;;23.10;99.90;;;;;;6128877;23;20017;-77
2023/07/16 09:06:32;;;;;;;7.32;5.05;;;22.90;99.90;;;;;;6153737;23;20020;-76
2023/07/16 09:08:58;;;;;;;8.73;5.72;;;22.70;99.90;;;;;;6153410;23;20017;-77
2023/07/16 09:11:23;;;;;;;9.88;5.88;;;22.40;99.90;;;;;;6153391;23;20013;-76
2023/07/16 09:13:49;;;;;;;6.93;5.45;;;22.00;99.90;;;;;;6153169;23;20005;-77
2023/07/16 09:16:18;;;;;;;8.80;5.38;;;21.60;99.90;;;;;;6153771;23;20446;-77
2023/07/16 09:18:43;;;;;;;9.80;5.78;;;21.40;99.90;;;;;;6153609;23;20013;-77
2023/07/16 09:21:09;;;;;;;9.13;5.72;;;21.20;99.90;;;;;;6153768;23;20454;-76
2023/07/16 09:23:36;;;;;;;8.57;5.70;;;21.10;99.90;;;;;;6152697;23;20021;-77
2023/07/16 09:26:03;;;;;;;7.50;5.47;;;21.00;99.90;;;;;;6152450;23;20024;-77
2023/07/16 09:28:30;;;;;;;9.20;6.13;;;20.80;99.90;;;;;;6152669;23;20018;-77
2023/07/16 09:31:02;;;;;;;7.82;5.72;;;20.80;99.90;;;;;;6169948;23;20021;-76
2023/07/16 09:33:28;;;;;;;8.90;5.60;;;21.10;99.90;;;;;;6158702;23;20013;-78
2023/07/16 09:35:54;;;;;;;10.00;6.15;;;21.60;99.90;;;;;;6158290;23;20412;-78
2023/07/16 09:38:21;;;;;;;10.70;5.78;;;22.10;99.90;;;;;;6158462;23;20009;-76
2023/07/16 09:40:46;;;;;;;9.45;5.60;;;22.70;99.90;;;;;;6165178;23;20060;-78
2023/07/16 09:43:13;;;;;;;9.27;6.00;;;22.90;99.90;;;;;;6153506;23;20357;-76
2023/07/16 09:45:38;;;;;;;12.07;5.75;;;22.80;99.90;;;;;;6153487;23;20469;-76
2023/07/16 09:48:04;;;;;;;9.50;6.40;;;22.50;99.90;;;;;;6153071;23;20017;-78
2023/07/16 09:50:35;;;;;;;10.70;6.55;;;22.40;99.90;;;;;;6153039;23;20446;-76
2023/07/16 09:53:03;;;;;;;9.15;6.15;;;22.20;99.90;;;;;;6128379;23;20040;-79
2023/07/16 09:55:31;;;;;;;9.25;5.85;;;22.10;99.90;;;;;;6153198;23;20014;-78
2023/07/16 09:57:59;;;;;;;9.13;5.75;;;22.10;99.90;;;;;;6152863;23;20006;-78
2023/07/16 10:00:26;;;;;;;8.65;6.00;;;21.90;99.90;;;;;;6153376;23;20017;-78
2023/07/16 10:02:52;;;;;;;10.15;5.95;;;21.80;99.90;;;;;;6153350;23;20013;-79
2023/07/16 10:05:23;;;;;;;9.40;6.07;;;21.50;99.90;;;;;;6153182;23;20016;-79
2023/07/16 10:07:59;;;;;;;7.80;5.57;;;21.30;99.90;;;;;;6152990;23;20476;-78
2023/07/16 10:10:51;;;;;;;10.43;6.03;;;21.10;99.90;;;;;;6151142;23;20014;-79
2023/07/16 10:13:17;;;;;;;8.02;6.10;;;20.80;99.90;;;;;;6126456;23;20482;-78
2023/07/16 10:15:55;;;;;;;9.45;6.30;;;20.50;99.90;;;;;;6152006;23;20035;-78
2023/07/16 10:18:30;;;;;;;8.70;6.38;;;20.30;99.90;;;;;;6151998;23;20020;-78
2023/07/16 10:21:07;;;;;;;8.00;6.18;;;20.30;99.90;;;;;;6152457;23;20446;-78
2023/07/16 10:23:45;;;;;;;9.45;6.57;;;20.20;99.90;;;;;;6153089;23;20041;-78
2023/07/16 10:26:13;;;;;;;9.20;6.50;;;20.20;99.90;;;;;;6152785;23;20450;-78
2023/07/16 10:28:39;;;;;;;8.68;5.85;;;20.40;99.90;;;;;;6153007;23;20057;-76
2023/07/16 10:31:07;;;;;;;10.70;6.75;;;20.50;99.90;;;;;;6151961;23;20010;-79
2023/07/16 10:33:33;;;;;;;10.43;6.10;;;20.80;99.90;;;;;;6128221;23;20092;-79
2023/07/16 10:36:00;;;;;;;8.52;6.35;;;21.00;99.90;;;;;;6153556;23;20014;-78
2023/07/16 10:38:26;;;;;;;9.07;6.30;;;21.20;99.90;;;;;;6152879;23;20024;-78
2023/07/16 10:40:52;;;;;;;7.57;5.50;;;21.60;99.90;;;;;;6152343;23;20068;-78
2023/07/16 10:43:17;;;;;;;7.85;5.65;;;22.10;99.90;;;;;;6152339;23;20009;-78
2023/07/16 10:45:46;;;;;;;7.95;5.55;;;22.50;99.90;;;;;;6128185;23;20092;-78
2023/07/16 10:48:12;;;;;;;8.27;5.65;;;22.80;99.90;;;;;;6151688;23;20043;-78
2023/07/16 10:50:38;;;;;;;9.00;6.10;;;23.20;99.90;;;;;;6153324;23;20009;-79
2023/07/16 10:53:04;;;;;;;8.60;5.47;;;23.90;99.90;;;;;;6153272;23;20388;-79
2023/07/16 10:55:31;;;;;;;9.73;5.60;;;24.30;99.90;;;;;;6153718;23;20028;-79
2023/07/16 10:57:57;;;;;;;8.68;5.47;;;24.60;99.90;;;;;;6128375;23;20097;-80
2023/07/16 11:00:23;;;;;;;7.10;5.47;;;24.90;98.60;;;;;;6152332;23;20013;-78
2023/07/16 11:02:52;;;;;;;9.45;5.30;;;25.20;98.90;;;;;;6127842;23;20405;-78
2023/07/16 11:05:19;;;;;;;7.70;5.18;;;25.30;86.90;;;;;;6152575;23;20489;-78
2023/07/16 11:07:49;;;;;;;7.43;5.03;;;25.20;95.80;;;;;;6153005;23;20366;-79
2023/07/16 11:10:18;;;;;;;8.32;5.80;;;25.40;80.40;;;;;;6151468;23;20010;-78
2023/07/16 11:12:44;;;;;;;9.00;5.47;;;25.20;76.50;;;;;;6153084;23;20017;-79
2023/07/16 11:15:10;;;;;;;8.95;5.47;;;24.70;74.60;;;;;;6153429;23;20060;-78
2023/07/16 11:17:39;;;;;;;6.60;5.90;;;24.40;79.30;;;;;;6152577;23;20060;-79
2023/07/16 11:20:08;;;;;;;7.35;5.68;;;24.00;85.10;;;;;;6152321;23;20021;-78
2023/07/16 11:22:37;;;;;;;8.23;5.57;;;23.50;99.10;;;;;;6153226;23;20025;-78
2023/07/16 11:25:04;;;;;;;9.27;5.70;;;23.10;99.90;;;;;;6153121;23;20056;-79
2023/07/16 11:27:32;;;;;;;10.00;6.03;;;22.80;99.90;;;;;;6152812;23;20327;-78
2023/07/16 11:30:00;;;;;;;8.10;5.78;;;22.50;99.90;;;;;;6152947;23;20089;-78
2023/07/16 11:32:42;;;;;;;7.45;5.53;;;22.10;99.90;;;;;;6128570;23;20462;-78
2023/07/16 11:35:08;;;;;;;9.25;5.60;;;21.80;99.90;;;;;;6152947;23;20010;-78
2023/07/16 11:37:36;;;;;;;9.00;6.03;;;21.60;99.90;;;;;;6128026;23;20085;-78
2023/07/16 11:40:03;;;;;;;8.77;5.35;;;21.50;99.90;;;;;;6152974;23;20571;-78
2023/07/16 11:42:35;;;;;;;8.65;5.70;;;21.50;99.90;;;;;;6154173;23;20403;-78
2023/07/16 11:45:01;;;;;;;7.32;4.90;;;21.80;99.90;;;;;;6155401;23;20013;-78
2023/07/16 11:47:28;;;;;;;7.05;5.22;;;22.00;99.90;;;;;;6154874;23;20064;-78
2023/07/16 11:49:54;;;;;;;7.65;5.85;;;22.20;99.90;;;;;;6154898;23;20014;-78
2023/07/16 11:52:21;;;;;;;11.40;5.55;;;22.50;99.90;;;;;;6154745;23;20013;-78
2023/07/16 11:54:47;;;;;;;9.32;5.90;;;22.80;99.90;;;;;;6154469;23;20013;-78
2023/07/16 11:57:13;;;;;;;7.25;5.45;;;23.10;99.90;;;;;;6129742;23;20035;-77
2023/07/16 11:59:38;;;;;;;8.80;5.38;;;23.20;99.90;;;;;;6153924;23;20020;-78
2023/07/16 12:02:04;;;;;;;8.80;6.40;;;23.20;99.90;;;;;;6129447;23;20017;-78
2023/07/16 12:04:30;;;;;;;8.07;5.55;;;23.10;99.90;;;;;;6155039;23;20464;-78
2023/07/16 12:06:55;;;;;;;11.82;6.25;;;22.80;99.90;;;;;;6154298;23;20357;-78
2023/07/16 12:09:21;;;;;;;8.32;5.90;;;22.40;99.90;;;;;;6129468;23;20465;-78
2023/07/16 12:11:46;;;;;;;8.52;6.18;;;21.90;99.90;;;;;;6153671;23;20014;-78
2023/07/16 12:14:12;;;;;;;7.53;6.05;;;21.50;99.90;;;;;;6154999;23;20097;-78
2023/07/16 12:16:38;;;;;;;8.85;5.78;;;21.20;99.90;;;;;;6154587;23;20022;-78
2023/07/16 12:19:05;;;;;;;7.38;6.03;;;21.20;99.90;;;;;;6155034;23;20024;-79
2023/07/16 12:21:31;;;;;;;13.88;6.32;;;21.30;99.90;;;;;;6154909;23;20013;-79
2023/07/16 12:23:56;;;;;;;9.63;6.55;;;21.50;99.90;;;;;;6130596;23;20092;-79
2023/07/16 12:26:22;;;;;;;11.02;6.35;;;22.30;99.90;;;;;;6129497;23;20052;-78
2023/07/16 12:28:47;;;;;;;8.60;5.80;;;23.20;99.90;;;;;;6130986;23;20018;-78
2023/07/16 12:31:15;;;;;;;7.68;5.78;;;23.70;99.90;;;;;;6155303;23;20014;-79
2023/07/16 12:33:40;;;;;;;8.10;5.10;;;23.80;99.90;;;;;;6154956;23;20088;-78
2023/07/16 12:36:06;;;;;;;7.25;5.30;;;23.60;97.50;;;;;;6155524;23;20047;-78
2023/07/16 12:38:31;;;;;;;6.97;5.05;;;23.50;98.90;;;;;;6130317;23;20017;-79
2023/07/16 12:40:57;;;;;;;7.55;4.55;;;23.80;99.90;;;;;;6154803;23;20064;-79